Time;durP1;ratioP1;P1;durP2;ratioP2;P2;SDS_P1;SDS_P2;PMS_P1;PMS_P2;Temp;Humidity;BMP_temperature;BMP_pressure;BME280_temperature;BME280_humidity;BME280_pressure;Samples;Min_cycle;Max_cycle;Signal;HPM_P1;HPM_P2
2023/09/17 00:01:05;;;;;;;13.65;7.53;;;;;;;15.46;100.00;100323.63;4937712;29;20039;-95
2023/09/17 00:03:32;;;;;;;10.18;7.18;;;;;;;15.37;100.00;100328.63;4938182;29;20087;-95
2023/09/17 00:05:57;;;;;;;10.48;7.68;;;;;;;15.39;100.00;100331.94;4937750;29;20110;-95
2023/09/17 00:08:23;;;;;;;12.75;8.55;;;;;;;15.46;100.00;100342.69;4938763;29;20074;-96
2023/09/17 00:10:49;;;;;;;11.80;8.20;;;;;;;15.51;100.00;100324.09;4937938;29;20028;-95
2023/09/17 00:13:15;;;;;;;13.80;8.68;;;;;;;15.46;100.00;100326.25;4938395;29;20027;-95
2023/09/17 00:15:40;;;;;;;10.20;7.82;;;;;;;15.45;100.00;100322.00;4938631;29;20034;-96
2023/09/17 00:18:06;;;;;;;10.55;8.07;;;;;;;15.34;100.00;100317.66;4938059;29;20024;-96
2023/09/17 00:20:31;;;;;;;12.05;9.13;;;;;;;15.45;100.00;100324.59;4938766;29;20470;-96
2023/09/17 00:22:56;;;;;;;15.98;10.38;;;;;;;15.31;100.00;100329.09;4937313;29;20107;-96
2023/09/17 00:25:22;;;;;;;11.00;9.25;;;;;;;15.36;100.00;100327.00;4938217;29;20062;-96
2023/09/17 00:27:47;;;;;;;18.25;10.27;;;;;;;15.29;100.00;100325.81;4938128;29;20027;-94
2023/09/17 00:30:13;;;;;;;15.60;10.05;;;;;;;15.31;100.00;100323.09;4938676;29;20036;-95
2023/09/17 00:32:40;;;;;;;15.55;10.05;;;;;;;15.31;100.00;100329.09;4938072;29;20035;-95
2023/09/17 00:35:06;;;;;;;15.25;9.68;;;;;;;15.23;100.00;100321.09;4937536;29;20487;-96
2023/09/17 00:37:31;;;;;;;12.23;9.45;;;;;;;15.19;100.00;100330.91;4937190;29;20028;-96
2023/09/17 00:39:57;;;;;;;14.73;10.35;;;;;;;15.23;100.00;100315.88;4937887;29;20212;-96
2023/09/17 00:42:23;;;;;;;17.00;9.63;;;;;;;15.14;100.00;100316.59;4940917;29;20038;-96
2023/09/17 00:44:48;;;;;;;13.93;10.80;;;;;;;15.19;100.00;100328.31;4939241;29;20020;-96
2023/09/17 00:47:14;;;;;;;20.48;11.20;;;;;;;15.15;100.00;100318.28;4939138;29;20069;-96
2023/09/17 00:49:39;;;;;;;16.42;11.32;;;;;;;15.16;100.00;100314.72;4940488;29;20028;-96
2023/09/17 00:52:19;;;;;;;17.63;11.00;;;;;;;15.19;100.00;100314.47;4938604;29;20051;-96
2023/09/17 00:54:47;;;;;;;17.95;12.23;;;;;;;15.12;100.00;100306.34;4938365;29;20026;-96
2023/09/17 00:57:15;;;;;;;15.02;10.18;;;;;;;15.11;100.00;100296.88;4938700;29;20028;-95
2023/09/17 00:59:41;;;;;;;18.75;12.32;;;;;;;15.15;100.00;100293.09;4939490;29;20387;-96
2023/09/17 01:02:07;;;;;;;18.70;11.55;;;;;;;15.12;100.00;100282.13;4937398;29;20470;-96
2023/09/17 01:04:32;;;;;;;18.85;12.45;;;;;;;15.05;100.00;100286.16;4938188;29;20023;-95
2023/09/17 01:06:58;;;;;;;16.13;12.57;;;;;;;15.02;100.00;100283.78;4936497;29;20557;-95
2023/09/17 01:09:25;;;;;;;19.10;12.88;;;;;;;15.10;100.00;100289.22;4956120;28;20027;-95
2023/09/17 01:11:51;;;;;;;15.40;11.93;;;;;;;15.09;100.00;100292.75;4956570;28;20031;-96
2023/09/17 01:14:19;;;;;;;23.38;14.07;;;;;;;15.02;100.00;100292.44;4956421;28;20537;-94
2023/09/17 01:16:45;;;;;;;20.58;13.35;;;;;;;15.03;100.00;100298.44;4956078;29;20118;-95
2023/09/17 01:19:26;;;;;;;26.50;13.38;;;;;;;15.10;100.00;100302.22;4956251;29;20035;-95
2023/09/17 01:22:01;;;;;;;26.35;14.45;;;;;;;15.05;100.00;100301.75;4956042;28;20474;-94
2023/09/17 01:24:37;;;;;;;26.88;16.25;;;;;;;15.10;100.00;100307.41;4955779;29;20605;-94
2023/09/17 01:27:04;;;;;;;20.92;14.43;;;;;;;15.02;100.00;100296.78;4954990;28;20493;-95
2023/09/17 01:29:39;;;;;;;22.15;14.23;;;;;;;14.87;100.00;100307.41;4955119;29;20024;-94
2023/09/17 01:32:08;;;;;;;19.15;14.60;;;;;;;14.95;100.00;100286.88;4956231;28;20027;-95
2023/09/17 01:34:37;;;;;;;22.73;15.73;;;;;;;14.82;100.00;100306.94;4955337;29;20038;-94
2023/09/17 01:37:07;;;;;;;21.67;16.60;;;;;;;14.79;100.00;100299.41;4955354;29;20082;-95
2023/09/17 01:39:40;;;;;;;18.75;14.68;;;;;;;14.80;100.00;100303.63;4955036;29;20090;-95
2023/09/17 01:42:06;;;;;;;21.10;16.17;;;;;;;14.93;100.00;100295.75;4954584;28;20030;-95
2023/09/17 01:44:33;;;;;;;22.30;14.82;;;;;;;14.90;100.00;100293.34;4954711;28;20481;-95
2023/09/17 01:47:00;;;;;;;23.40;15.38;;;;;;;14.91;100.00;100282.03;4955092;29;20027;-96
2023/09/17 01:49:27;;;;;;;19.27;14.55;;;;;;;14.90;100.00;100294.22;4955290;29;20036;-95
2023/09/17 01:51:56;;;;;;;24.77;16.20;;;;;;;14.81;100.00;100296.69;4954103;28;20027;-95
2023/09/17 01:54:23;;;;;;;24.88;17.15;;;;;;;14.72;100.00;100290.44;4954912;29;20260;-96
2023/09/17 01:56:48;;;;;;;23.65;17.55;;;;;;;14.70;100.00;100289.72;4955937;29;20028;-95
2023/09/17 01:59:14;;;;;;;20.73;15.90;;;;;;;14.76;100.00;100286.66;4953908;29;20058;-95
2023/09/17 02:01:40;;;;;;;23.23;17.23;;;;;;;14.77;100.00;100283.09;4953916;28;20074;-94
2023/09/17 02:04:05;;;;;;;18.65;15.88;;;;;;;14.72;100.00;100275.66;4954657;29;20035;-96
2023/09/17 02:06:31;;;;;;;22.83;16.85;;;;;;;14.74;100.00;100267.75;4954351;28;20050;-96
2023/09/17 02:08:56;;;;;;;22.90;17.40;;;;;;;14.70;100.00;100269.78;4970530;28;20478;-95
2023/09/17 02:11:22;;;;;;;25.83;16.52;;;;;;;14.74;100.00;100262.56;4954380;28;20405;-95
2023/09/17 02:13:47;;;;;;;25.40;17.02;;;;;;;14.74;100.00;100246.97;4955418;29;20059;-95
2023/09/17 02:16:12;;;;;;;20.25;15.13;;;;;;;14.71;100.00;100240.25;4954601;29;20355;-95
2023/09/17 02:18:38;;;;;;;22.00;16.40;;;;;;;14.81;100.00;100248.16;4956011;29;20062;-93
2023/09/17 02:21:03;;;;;;;24.35;16.27;;;;;;;14.69;100.00;100254.31;4955889;28;20470;-95
2023/09/17 02:23:29;;;;;;;22.70;16.75;;;;;;;14.65;100.00;100239.88;4955370;29;20041;-95
2023/09/17 02:25:54;;;;;;;20.92;15.73;;;;;;;14.68;100.00;100255.22;4960459;29;20461;-96
2023/09/17 02:28:19;;;;;;;21.48;15.68;;;;;;;14.66;100.00;100254.53;4957563;29;20018;-95
2023/09/17 02:30:46;;;;;;;21.15;15.68;;;;;;;14.69;100.00;100241.31;4955104;29;20031;-94
2023/09/17 02:33:11;;;;;;;24.83;15.60;;;;;;;14.66;100.00;100233.75;4954872;28;20027;-94
2023/09/17 02:35:37;;;;;;;24.83;16.45;;;;;;;14.57;100.00;100237.06;4955665;29;20134;-96
2023/09/17 02:38:04;;;;;;;24.67;16.02;;;;;;;14.54;100.00;100233.75;4955498;29;20035;-96
2023/09/17 02:40:29;;;;;;;22.08;15.70;;;;;;;14.55;100.00;100238.00;4955902;29;20070;-94
2023/09/17 02:42:54;;;;;;;18.00;15.32;;;;;;;14.59;100.00;100240.38;4958447;28;20027;-95
2023/09/17 02:45:20;;;;;;;20.85;16.05;;;;;;;14.53;100.00;100242.50;4954996;29;20478;-94
2023/09/17 02:47:45;;;;;;;22.20;15.80;;;;;;;14.52;100.00;100247.78;4955057;28;20039;-94
2023/09/17 02:50:11;;;;;;;22.50;16.88;;;;;;;14.59;100.00;100237.78;4955244;28;20030;-94
2023/09/17 02:52:36;;;;;;;22.10;15.27;;;;;;;14.62;100.00;100238.34;4954842;28;20118;-95
2023/09/17 02:55:04;;;;;;;23.83;17.25;;;;;;;14.60;100.00;100244.63;4954729;29;20023;-95
2023/09/17 02:57:30;;;;;;;23.20;16.27;;;;;;;14.52;100.00;100233.00;4954730;29;20470;-95
2023/09/17 02:59:55;;;;;;;19.88;16.15;;;;;;;14.47;100.00;100237.75;4954615;28;20058;-95
2023/09/17 03:02:21;;;;;;;24.55;16.02;;;;;;;14.43;100.00;100238.09;4954610;28;20027;-96
2023/09/17 03:04:46;;;;;;;22.85;15.27;;;;;;;14.46;100.00;100233.50;4957649;28;20030;-94
2023/09/17 03:07:11;;;;;;;23.35;17.42;;;;;;;14.41;100.00;100235.63;4957816;29;20039;-96
2023/09/17 03:09:38;;;;;;;21.58;17.27;;;;;;;14.37;100.00;100233.38;4960474;29;20032;-95
2023/09/17 03:12:04;;;;;;;22.42;16.90;;;;;;;14.49;100.00;100229.84;4958867;28;20077;-95
2023/09/17 03:14:30;;;;;;;24.00;16.77;;;;;;;14.35;100.00;100231.72;4958920;28;20091;-96
2023/09/17 03:16:55;;;;;;;28.85;16.70;;;;;;;14.35;100.00;100223.09;4959870;29;20106;-95
2023/09/17 03:19:20;;;;;;;22.98;17.55;;;;;;;14.30;100.00;100217.44;4960477;29;20039;-95
2023/09/17 03:21:46;;;;;;;22.92;16.95;;;;;;;14.31;100.00;100221.69;4961150;28;20027;-95
2023/09/17 03:24:14;;;;;;;28.20;16.77;;;;;;;14.40;100.00;100213.19;4958316;28;20470;-95
2023/09/17 03:26:40;;;;;;;23.77;16.58;;;;;;;14.31;100.00;100211.28;4958307;29;20031;-96
2023/09/17 03:29:07;;;;;;;22.42;17.25;;;;;;;14.23;100.00;100208.47;4957757;29;20031;-95
2023/09/17 03:31:33;;;;;;;23.15;17.27;;;;;;;14.25;100.00;100209.19;4957624;28;20030;-95
2023/09/17 03:33:58;;;;;;;25.55;18.05;;;;;;;14.28;100.00;100208.94;4959286;29;20019;-94
2023/09/17 03:36:24;;;;;;;24.00;16.75;;;;;;;14.31;100.00;100211.28;4958895;29;20023;-95
2023/09/17 03:38:49;;;;;;;27.17;17.10;;;;;;;14.28;100.00;100201.16;4958410;29;20461;-95
2023/09/17 03:41:15;;;;;;;22.73;17.38;;;;;;;14.22;100.00;100206.84;4957870;28;20032;-94
2023/09/17 03:43:40;;;;;;;23.73;16.60;;;;;;;14.29;100.00;100187.25;4957086;29;20026;-95
2023/09/17 03:46:05;;;;;;;24.02;15.93;;;;;;;14.30;100.00;100202.69;4958324;29;20474;-96
2023/09/17 03:48:32;;;;;;;26.70;17.98;;;;;;;14.27;100.00;100186.53;4962652;29;20498;-96
2023/09/17 03:51:00;;;;;;;24.27;17.88;;;;;;;14.33;100.00;100193.84;4960530;29;20035;-95
2023/09/17 03:53:31;;;;;;;28.90;17.55;;;;;;;14.25;100.00;100194.44;4964941;28;20023;-95
2023/09/17 03:55:57;;;;;;;26.25;17.23;;;;;;;14.19;100.00;100181.09;4964765;28;20015;-95
2023/09/17 03:58:22;;;;;;;26.80;18.00;;;;;;;14.21;100.00;100176.59;4962164;29;20034;-94
2023/09/17 04:00:51;;;;;;;24.73;17.98;;;;;;;14.25;100.00;100167.66;4967881;28;20031;-96
2023/09/17 04:03:19;;;;;;;24.95;18.10;;;;;;;14.26;100.00;100167.50;4958189;28;20372;-95
2023/09/17 04:05:46;;;;;;;23.65;18.27;;;;;;;14.30;100.00;100165.53;4961738;29;20029;-96
2023/09/17 04:08:11;;;;;;;27.38;18.35;;;;;;;14.32;100.00;100154.06;4961690;28;20035;-95
2023/09/17 04:10:37;;;;;;;33.83;19.25;;;;;;;14.31;100.00;100161.97;4962288;29;20050;-94
2023/09/17 04:13:02;;;;;;;24.90;18.08;;;;;;;14.22;100.00;100153.13;4958821;28;20501;-95
2023/09/17 04:15:28;;;;;;;32.30;19.67;;;;;;;14.24;100.00;100166.81;4958959;28;20035;-95
2023/09/17 04:17:53;;;;;;;24.95;18.13;;;;;;;14.23;100.00;100174.72;4959165;29;20031;-95
2023/09/17 04:20:20;;;;;;;24.48;19.05;;;;;;;14.21;100.00;100171.41;4962241;28;20038;-96
2023/09/17 04:22:50;;;;;;;27.08;19.02;;;;;;;14.22;100.00;100162.69;4971489;28;20062;-96
2023/09/17 04:25:18;;;;;;;26.23;19.90;;;;;;;14.22;100.00;100168.72;4971262;29;20031;-96
2023/09/17 04:27:44;;;;;;;28.08;18.30;;;;;;;14.35;100.00;100158.19;4960854;28;20481;-96
2023/09/17 04:30:13;;;;;;;27.30;18.20;;;;;;;14.24;100.00;100158.19;4966220;29;20042;-96
2023/09/17 04:32:40;;;;;;;28.98;19.58;;;;;;;14.22;100.00;100157.50;4949332;29;20031;-96
2023/09/17 04:35:07;;;;;;;26.65;18.27;;;;;;;14.21;100.00;100154.06;4959682;28;20083;-95
2023/09/17 04:37:34;;;;;;;26.90;19.40;;;;;;;14.15;100.00;100146.78;4961312;28;20034;-96
2023/09/17 04:39:59;;;;;;;27.08;17.48;;;;;;;14.18;100.00;100143.09;4959543;29;20067;-96
2023/09/17 04:42:25;;;;;;;27.42;18.00;;;;;;;14.21;100.00;100124.69;4957318;28;20106;-95
2023/09/17 04:44:50;;;;;;;25.35;19.02;;;;;;;14.15;100.00;100126.00;4961844;29;20026;-94
2023/09/17 04:47:15;;;;;;;28.70;19.88;;;;;;;14.12;100.00;100110.69;4962594;29;20051;-96
2023/09/17 04:49:41;;;;;;;27.38;18.50;;;;;;;14.14;100.00;100124.34;4962698;29;20030;-96
2023/09/17 04:52:06;;;;;;;29.48;20.02;;;;;;;14.10;100.00;100112.56;4958927;28;20026;-96
2023/09/17 04:54:31;;;;;;;30.17;19.50;;;;;;;14.09;100.00;100121.28;4959589;29;20023;-95
2023/09/17 04:56:57;;;;;;;27.98;19.27;;;;;;;14.13;100.00;100113.13;4961525;29;20030;-95
2023/09/17 04:59:22;;;;;;;25.88;17.73;;;;;;;14.15;100.00;100117.41;4961067;29;20537;-96
2023/09/17 05:01:48;;;;;;;32.97;19.65;;;;;;;14.07;100.00;100108.44;4970329;28;20030;-96
2023/09/17 05:04:15;;;;;;;32.75;18.88;;;;;;;14.12;100.00;100108.09;4966707;29;20035;-96
2023/09/17 05:06:42;;;;;;;28.65;17.70;;;;;;;14.11;100.00;100099.44;4966177;29;20032;-95
2023/09/17 05:09:08;;;;;;;30.30;18.33;;;;;;;14.12;100.00;100101.13;4964577;29;20129;-96
2023/09/17 05:11:33;;;;;;;35.30;19.33;;;;;;;14.11;100.00;100091.66;4965915;28;20086;-96
2023/09/17 05:14:01;;;;;;;28.35;19.73;;;;;;;14.20;100.00;100095.31;4963883;29;20107;-96
2023/09/17 05:16:26;;;;;;;27.13;18.58;;;;;;;14.09;100.00;100098.75;4964033;28;20178;-96
2023/09/17 05:18:52;;;;;;;28.20;19.45;;;;;;;14.12;100.00;100101.13;4962620;28;20541;-96
2023/09/17 05:21:19;;;;;;;29.88;20.92;;;;;;;14.10;100.00;100092.63;4964045;28;20030;-96
2023/09/17 05:23:45;;;;;;;32.55;19.48;;;;;;;14.13;100.00;100094.16;4961468;29;20383;-96
2023/09/17 05:26:10;;;;;;;29.60;19.40;;;;;;;14.13;100.00;100102.75;4961155;28;20043;-96
2023/09/17 05:28:36;;;;;;;29.15;19.17;;;;;;;14.17;100.00;100097.31;4961748;29;20548;-96
2023/09/17 05:31:01;;;;;;;37.25;20.65;;;;;;;14.19;100.00;100103.22;4964669;28;20040;-96
2023/09/17 05:33:27;;;;;;;30.80;19.60;;;;;;;14.14;100.00;100100.97;4962075;29;20397;-96
2023/09/17 05:35:56;;;;;;;33.45;20.63;;;;;;;14.16;100.00;100100.88;4959225;28;20023;-96
2023/09/17 05:38:23;;;;;;;33.38;20.42;;;;;;;14.20;100.00;100107.47;4954391;28;20033;-95
2023/09/17 05:40:49;;;;;;;32.50;20.17;;;;;;;14.18;100.00;100109.38;4954628;29;20374;-96
2023/09/17 05:43:15;;;;;;;34.35;21.25;;;;;;;14.17;100.00;100115.47;4954336;28;20034;-96
2023/09/17 05:45:40;;;;;;;34.17;20.65;;;;;;;14.25;100.00;100107.94;4954820;29;20027;-95
2023/09/17 05:48:06;;;;;;;35.25;20.48;;;;;;;14.26;100.00;100107.81;4955276;29;20026;-94
2023/09/17 05:50:31;;;;;;;35.25;21.15;;;;;;;14.25;100.00;100119.16;4955131;29;20031;-96
2023/09/17 05:52:57;;;;;;;38.03;23.00;;;;;;;14.30;100.00;100123.97;4956000;28;20434;-95
2023/09/17 05:55:22;;;;;;;32.72;20.67;;;;;;;14.29;100.00;100124.94;4954537;29;20124;-96
2023/09/17 05:57:47;;;;;;;32.28;20.90;;;;;;;14.38;100.00;100132.00;4955129;29;20165;-95
2023/09/17 06:00:13;;;;;;;31.20;20.73;;;;;;;14.39;100.00;100120.69;4970919;28;20062;-96
2023/09/17 06:02:39;;;;;;;30.27;21.73;;;;;;;14.42;100.00;100122.19;4956044;28;20034;-95
2023/09/17 06:05:05;;;;;;;38.33;20.90;;;;;;;14.52;100.00;100100.56;4955487;29;20126;-94
2023/09/17 06:07:30;;;;;;;38.50;22.13;;;;;;;14.55;100.00;100105.53;4956747;29;20020;-95
2023/09/17 06:09:55;;;;;;;37.13;21.80;;;;;;;14.52;100.00;100113.56;4955059;29;20023;-96
2023/09/17 06:12:21;;;;;;;33.20;21.35;;;;;;;14.55;100.00;100107.31;4955354;28;20034;-96
2023/09/17 06:14:46;;;;;;;38.05;21.77;;;;;;;14.58;100.00;100111.44;4955982;29;20098;-96
2023/09/17 06:17:11;;;;;;;31.15;20.77;;;;;;;14.71;100.00;100106.94;4966991;29;20026;-96
2023/09/17 06:19:37;;;;;;;30.63;20.25;;;;;;;14.65;100.00;100104.81;4968035;29;20035;-96
2023/09/17 06:22:03;;;;;;;34.70;20.25;;;;;;;14.71;100.00;100101.75;4966717;28;20035;-96
2023/09/17 06:24:29;;;;;;;39.13;23.35;;;;;;;14.64;100.00;100100.59;4968786;28;20023;-94
2023/09/17 06:27:03;;;;;;;36.33;21.67;;;;;;;14.76;100.00;100105.63;4965350;29;20055;-96
2023/09/17 06:29:29;;;;;;;31.35;20.75;;;;;;;14.79;100.00;100094.16;4959708;28;20054;-94
2023/09/17 06:31:55;;;;;;;37.47;21.63;;;;;;;14.81;100.00;100099.22;4960793;28;20031;-96
2023/09/17 06:34:20;;;;;;;36.40;23.77;;;;;;;14.84;100.00;100105.00;4960983;29;20030;-96
2023/09/17 06:36:46;;;;;;;33.35;21.58;;;;;;;14.92;100.00;100110.41;4963549;29;20027;-95
2023/09/17 06:39:12;;;;;;;38.70;22.15;;;;;;;14.93;100.00;100099.06;4958121;28;20035;-94
2023/09/17 06:41:37;;;;;;;35.35;20.23;;;;;;;15.06;100.00;100096.28;4960332;28;20019;-96
2023/09/17 06:44:02;;;;;;;40.10;21.60;;;;;;;15.04;100.00;100094.75;4960022;29;20047;-96
2023/09/17 06:46:29;;;;;;;35.83;21.75;;;;;;;15.06;100.00;100090.25;4961939;29;20474;-96
2023/09/17 06:48:55;;;;;;;36.47;23.55;;;;;;;15.07;100.00;100087.53;4959798;29;20054;-95
2023/09/17 06:51:20;;;;;;;35.55;22.13;;;;;;;15.20;100.00;100097.75;4958959;28;20082;-95
2023/09/17 06:53:46;;;;;;;41.40;23.52;;;;;;;15.07;100.00;100094.50;4960751;29;20113;-94
2023/09/17 06:56:13;;;;;;;33.00;21.17;;;;;;;15.17;100.00;100093.63;4960498;29;20031;-95
2023/09/17 06:58:39;;;;;;;36.50;21.52;;;;;;;15.23;100.00;100084.50;4959417;29;20031;-96
2023/09/17 07:01:05;;;;;;;33.38;21.83;;;;;;;15.17;100.00;100088.44;4960274;28;20050;-96
2023/09/17 07:03:32;;;;;;;34.30;22.20;;;;;;;15.16;100.00;100089.38;4959228;29;20047;-95
2023/09/17 07:05:58;;;;;;;35.63;21.63;;;;;;;15.23;100.00;100087.09;4958413;29;20066;-94
2023/09/17 07:08:23;;;;;;;40.33;23.45;;;;;;;15.32;100.00;100085.53;4958595;29;20057;-95
2023/09/17 07:10:49;;;;;;;31.55;20.85;;;;;;;15.38;100.00;100083.22;4959129;29;20067;-95
2023/09/17 07:13:14;;;;;;;37.65;22.98;;;;;;;15.36;100.00;100085.16;4958472;28;20034;-95
2023/09/17 07:15:39;;;;;;;36.03;21.55;;;;;;;15.46;100.00;100090.41;4958857;29;20030;-95
2023/09/17 07:18:07;;;;;;;33.50;21.13;;;;;;;15.67;100.00;100085.16;4958911;29;20082;-95
2023/09/17 07:20:33;;;;;;;29.70;21.25;;;;;;;15.69;100.00;100082.44;4959066;28;20071;-93
2023/09/17 07:23:00;;;;;;;32.35;20.42;;;;;;;15.80;100.00;100074.56;4954756;28;20035;-94
2023/09/17 07:25:28;;;;;;;29.10;19.85;;;;;;;15.73;100.00;100078.66;5158272;23;20046;-96
2023/09/17 07:27:54;;;;;;;34.63;20.88;;;;;;;15.79;100.00;100080.72;5085094;23;20074;-96
2023/09/17 07:30:24;;;;;;;32.47;21.70;;;;;;;15.75;100.00;100077.56;4963107;28;20011;-96
2023/09/17 07:35:24;;;;;;;30.58;19.48;;;;;;;15.98;100.00;100082.59;4976217;23;20395;-96
2023/09/17 07:40:21;;;;;;;;;;;;;;;16.00;100.00;100065.06;5121594;23;20397;-95
2023/09/17 07:42:47;;;;;;;31.83;20.25;;;;;;;15.98;100.00;100059.16;5513755;23;20818;-96
2023/09/17 07:45:13;;;;;;;33.22;20.25;;;;;;;16.01;100.00;100051.91;4967322;29;20046;-96
2023/09/17 07:47:38;;;;;;;31.40;20.25;;;;;;;15.84;100.00;100048.16;5462216;23;20062;-96
2023/09/17 07:50:05;;;;;;;35.83;21.05;;;;;;;15.79;100.00;100039.09;5322952;23;20134;-96
2023/09/17 07:52:34;;;;;;;32.45;20.05;;;;;;;15.90;100.00;100043.38;5098219;23;20021;-96
2023/09/17 07:57:36;;;;;;;29.20;19.98;;;;;;;15.96;100.00;100035.03;5223888;23;20073;-96
2023/09/17 08:00:04;;;;;;;35.15;20.38;;;;;;;15.86;100.00;100031.59;4999878;28;20045;-96
2023/09/17 08:02:29;;;;;;;30.75;21.50;;;;;;;15.81;100.00;100037.19;5007788;23;20509;-92
2023/09/17 08:07:24;;;;;;;30.35;20.83;;;;;;;15.98;100.00;100028.75;4977898;28;20054;-96
2023/09/17 08:09:50;;;;;;;28.42;19.27;;;;;;;15.99;100.00;100022.56;5190399;23;20022;-96
2023/09/17 08:12:21;;;;;;;29.40;20.15;;;;;;;16.07;100.00;100028.91;5097073;23;20417;-96
2023/09/17 08:17:22;;;;;;;34.53;21.27;;;;;;;16.14;100.00;100035.22;5699297;23;20086;-96
2023/09/17 08:19:48;;;;;;;32.20;20.55;;;;;;;16.12;100.00;100027.56;5007954;28;20030;-96
2023/09/17 08:24:48;;;;;;;43.95;22.80;;;;;;;16.05;100.00;100031.66;5475914;23;20047;-96
2023/09/17 08:27:16;;;;;;;31.40;21.88;;;;;;;16.06;100.00;100028.06;5126066;23;20119;-96
2023/09/17 08:32:31;;;;;;;39.60;20.83;;;;;;;16.20;100.00;100035.50;5453699;23;20443;-96
2023/09/17 08:37:38;;;;;;;31.42;21.10;;;;;;;16.40;100.00;100015.53;5102040;23;20078;-96
2023/09/17 08:42:45;;;;;;;37.67;22.48;;;;;;;16.43;100.00;100019.63;5116061;23;20062;-96
2023/09/17 08:45:12;;;;;;;31.67;20.85;;;;;;;16.50;100.00;100025.94;4975978;28;20024;-96
2023/09/17 08:47:40;;;;;;;33.88;21.85;;;;;;;16.57;100.00;99998.38;5068122;23;20054;-96
2023/09/17 08:50:09;;;;;;;32.28;21.05;;;;;;;16.67;100.00;100012.22;5004326;28;20795;-96
2023/09/17 08:52:53;;;;;;;35.72;22.48;;;;;;;16.56;100.00;100020.22;4993928;28;20076;-96
2023/09/17 08:55:21;;;;;;;35.53;21.38;;;;;;;16.64;100.00;100017.72;5003869;23;20037;-96
2023/09/17 08:58:12;;;;;;;36.05;22.35;;;;;;;16.69;100.00;100019.91;4969115;28;20032;-96
2023/09/17 09:00:48;;;;;;;34.78;21.05;;;;;;;16.98;100.00;100012.09;4983012;23;20046;-94
2023/09/17 09:05:44;;;;;;;29.65;19.67;;;;;;;17.02;100.00;100021.31;4991287;28;20098;-95
2023/09/17 09:08:12;;;;;;;31.55;21.55;;;;;;;16.94;100.00;100021.16;4987010;28;20503;-96
2023/09/17 09:13:13;;;;;;;30.75;19.95;;;;;;;17.04;100.00;100019.34;5098655;23;20051;-96
2023/09/17 09:15:41;;;;;;;37.65;20.65;;;;;;;17.19;100.00;100021.53;4977722;28;20037;-96
2023/09/17 09:18:08;;;;;;;35.70;19.73;;;;;;;17.26;100.00;100012.16;4989387;28;20039;-96
2023/09/17 09:20:41;;;;;;;30.08;21.27;;;;;;;17.07;100.00;100018.28;5187424;23;20058;-96
2023/09/17 09:25:35;;;;;;;29.58;20.63;;;;;;;17.28;100.00;100011.06;5061522;23;20099;-96
2023/09/17 09:28:02;;;;;;;32.38;21.48;;;;;;;17.19;100.00;100009.31;4972131;28;20064;-96
2023/09/17 09:30:28;;;;;;;30.75;20.90;;;;;;;17.24;100.00;100016.69;5026400;23;20098;-96
2023/09/17 09:32:55;;;;;;;32.33;21.38;;;;;;;17.15;100.00;100015.78;5005908;28;20067;-96
2023/09/17 09:35:21;;;;;;;34.38;21.98;;;;;;;17.20;100.00;100002.31;5004141;28;20037;-96
2023/09/17 09:37:50;;;;;;;29.65;19.77;;;;;;;17.28;100.00;100015.47;5050147;23;20043;-96
2023/09/17 09:43:30;;;;;;;30.88;19.75;;;;;;;17.32;100.00;99996.78;5161177;23;20062;-96
2023/09/17 09:46:04;;;;;;;32.95;19.25;;;;;;;17.32;100.00;99995.97;5352509;23;20102;-96
2023/09/17 09:48:37;;;;;;;25.17;18.80;;;;;;;17.37;100.00;99982.50;5086683;23;20042;-96
2023/09/17 09:51:12;;;;;;;31.70;19.00;;;;;;;17.37;100.00;99985.94;4993067;23;20034;-96
2023/09/17 09:53:42;;;;;;;31.60;19.65;;;;;;;17.39;100.00;99975.34;5032614;23;20050;-96
2023/09/17 09:56:17;;;;;;;22.95;17.60;;;;;;;17.36;100.00;99986.06;4951718;29;20043;-96
2023/09/17 09:58:44;;;;;;;29.52;19.00;;;;;;;17.40;100.00;99972.59;4949190;28;20465;-96
2023/09/17 10:01:10;;;;;;;31.02;18.05;;;;;;;17.40;100.00;99967.38;4956352;28;20070;-93
2023/09/17 10:03:35;;;;;;;23.08;17.17;;;;;;;17.41;100.00;99976.84;4941364;29;20071;-96
2023/09/17 10:06:09;;;;;;;28.60;18.65;;;;;;;17.34;100.00;99962.75;4940566;29;20043;-96
2023/09/17 10:08:37;;;;;;;21.77;17.85;;;;;;;17.33;100.00;99961.91;4931696;29;20040;-95
2023/09/17 10:11:05;;;;;;;23.33;17.15;;;;;;;17.39;100.00;99954.50;4949126;29;20089;-94
2023/09/17 10:13:32;;;;;;;24.98;18.90;;;;;;;17.29;100.00;99954.53;4939513;29;20055;-95
2023/09/17 10:15:57;;;;;;;24.40;17.15;;;;;;;17.31;100.00;99952.56;4953192;29;20023;-96
2023/09/17 10:18:27;;;;;;;21.88;16.75;;;;;;;17.21;100.00;99949.19;4934322;29;20034;-95
2023/09/17 10:20:54;;;;;;;24.20;17.85;;;;;;;17.25;100.00;99953.16;4931796;29;20102;-95
2023/09/17 10:23:22;;;;;;;22.88;16.98;;;;;;;17.24;100.00;99954.09;4930370;29;20030;-94
2023/09/17 10:25:48;;;;;;;25.85;18.02;;;;;;;17.12;100.00;99940.44;4928172;29;20337;-95
2023/09/17 10:28:16;;;;;;;24.05;16.98;;;;;;;17.05;100.00;99923.72;4932967;29;20032;-94
2023/09/17 10:30:45;;;;;;;33.80;16.75;;;;;;;17.06;100.00;99923.56;4929446;29;20032;-95
2023/09/17 10:33:11;;;;;;;27.63;18.83;;;;;;;16.96;100.00;99933.22;4927035;29;20114;-95
2023/09/17 10:35:38;;;;;;;24.50;18.23;;;;;;;16.94;100.00;99919.50;4949289;29;20035;-96
2023/09/17 10:38:06;;;;;;;25.05;17.90;;;;;;;16.84;100.00;99918.69;4953161;29;20502;-96
2023/09/17 10:40:55;;;;;;;23.75;18.10;;;;;;;16.67;100.00;99931.44;4952970;29;20043;-96
2023/09/17 10:56:19;;;;;;;31.58;22.85;;;;;;;16.41;100.00;99938.19;5204216;23;20055;-94
2023/09/17 10:58:46;;;;;;;26.33;21.45;;;;;;;16.31;100.00;99937.38;4972966;28;20031;-96
2023/09/17 11:01:19;;;;;;;30.25;23.90;;;;;;;16.27;100.00;99932.47;4970767;28;20025;-94
2023/09/17 11:03:50;;;;;;;38.05;23.23;;;;;;;16.26;100.00;99941.25;4951553;29;20034;-93
2023/09/17 11:06:23;;;;;;;39.58;22.55;;;;;;;16.18;100.00;99943.69;4953462;28;20106;-93
2023/09/17 11:08:51;;;;;;;39.25;27.23;;;;;;;16.07;100.00;99936.03;4951206;28;20035;-93
2023/09/17 11:11:17;;;;;;;39.67;26.98;;;;;;;16.06;100.00;99939.56;4950669;28;20370;-94
2023/09/17 11:13:46;;;;;;;47.10;34.28;;;;;;;16.03;100.00;99932.03;4934210;29;20038;-96
2023/09/17 11:16:29;;;;;;;55.28;36.67;;;;;;;16.00;100.00;99937.53;4947741;29;20031;-96
2023/09/17 11:19:04;;;;;;;55.40;39.10;;;;;;;15.97;100.00;99946.44;4950237;29;20035;-94
2023/09/17 11:21:30;;;;;;;51.45;38.08;;;;;;;15.96;100.00;99949.16;4952438;28;20174;-95
2023/09/17 11:23:55;;;;;;;56.95;37.80;;;;;;;15.98;100.00;99953.25;4934501;29;20031;-93
2023/09/17 11:26:26;;;;;;;62.50;35.95;;;;;;;15.99;100.00;99947.09;4935906;29;20333;-92
2023/09/17 11:28:57;;;;;;;57.13;38.83;;;;;;;16.00;100.00;99940.13;4949068;29;20382;-93
2023/09/17 11:31:26;;;;;;;48.55;32.50;;;;;;;15.91;100.00;99941.75;4918103;29;20067;-92
2023/09/17 11:33:51;;;;;;;42.00;29.70;;;;;;;15.95;100.00;99943.13;4947435;29;20073;-94
2023/09/17 11:36:17;;;;;;;57.70;34.53;;;;;;;15.93;100.00;99941.63;4944151;29;20062;-92
2023/09/17 11:38:47;;;;;;;53.47;31.02;;;;;;;15.94;100.00;99940.66;4943118;28;20027;-92
2023/09/17 11:41:18;;;;;;;46.90;33.80;;;;;;;15.88;100.00;99938.59;4953172;28;20130;-93
2023/09/17 11:43:51;;;;;;;43.72;31.77;;;;;;;15.87;100.00;99936.94;4956445;28;20027;-96
2023/09/17 11:46:17;;;;;;;59.40;32.70;;;;;;;15.83;100.00;99934.63;4951060;29;20028;-95
2023/09/17 11:48:59;;;;;;;;;;;;;;;;;;;;;
2023/09/17 11:51:32;;;;;;;58.42;34.75;;;;;;;15.79;100.00;99924.59;4939148;28;20474;-96